»·PEaware :: N796TM KPSP-KLAX

N796TM :: KPSP-KLAX

FLIGHT INFORMATION

Flight Status: Arrived
Operator: Privately registered:
United States
More flights under this callsign
Pilot: Thomas J. (32264)
Aircraft: SOCATA TBM-900
(TBM9)
More flights by this aircraft type
Origin: KPSP Palm Springs Intl
United States
Destination: KLAX Los Angeles Intl
United States
More flights between these airports :: More routes between these airports
Route: CATH1 PSP V388 PDZ LAHAB
File this flight plan on PilotEdge
Remarks: PSPP10A
Altitude:
(Current/Filed)
12,000ft
Speed:
(Current/Filed)
180kts
Departed: 28-Dec-20 12:34 PM
Arrived: 28-Dec-20 01:22 PM
Distance/Time
Traveled:
94nm/0:48
Distance/Time
To Go:
Arrived

Flight Plot

Page will automatically refresh every two minutes.

Flight plan parsing failed; only flown route is shown


Map Options




Map Legend


Flown Route
Filed Route
Departure Airport
Arrival Airport
Navaid (VOR, NDB)
Fix

Horizontal Profiles

Position Reports

Time Latitude Longitude Heading Altitude Ground
Speed
28-Dec-20 12:18 33.822129 -116.496068 323 395ft 0kts
28-Dec-20 12:19 33.822129 -116.496068 323 395ft 0kts
28-Dec-20 12:20 33.822129 -116.496068 323 395ft 0kts
28-Dec-20 12:21 33.822129 -116.496068 323 395ft 0kts
28-Dec-20 12:22 33.822129 -116.496068 323 395ft 0kts
28-Dec-20 12:24 33.822129 -116.496068 323 395ft 0kts
28-Dec-20 12:25 33.822129 -116.496068 323 395ft 0kts
28-Dec-20 12:26 33.822129 -116.496068 323 395ft 0kts
28-Dec-20 12:27 33.822129 -116.496068 323 395ft 0kts
28-Dec-20 12:28 33.821545 -116.496293 147 395ft 12kts
28-Dec-20 12:29 33.820136 -116.495569 227 391ft 3kts
28-Dec-20 12:30 33.819579 -116.496421 232 397ft 5kts
28-Dec-20 12:31 33.819257 -116.496935 233 400ft 0kts
28-Dec-20 12:32 33.819219 -116.497060 251 400ft 0kts
28-Dec-20 12:33 33.819215 -116.497073 247 400ft 0kts
28-Dec-20 12:34 33.820739 -116.499684 322 404ft 49kts
28-Dec-20 12:35 33.846908 -116.523727 321 1167ft 142kts
28-Dec-20 12:36 33.876495 -116.550848 320 2807ft 134kts
28-Dec-20 12:37 33.901480 -116.575861 339 4958ft 146kts
28-Dec-20 12:38 33.909818 -116.521437 143 4236ft 236kts
28-Dec-20 12:38 33.883490 -116.468945 113 5481ft 210kts
28-Dec-20 12:40 33.855160 -116.395104 118 7235ft 197kts
28-Dec-20 12:40 33.869113 -116.385942 264 8075ft 140kts
28-Dec-20 12:42 33.871117 -116.441746 283 9277ft 148kts
28-Dec-20 12:42 33.880829 -116.479972 283 10076ft 147kts
28-Dec-20 12:43 33.892907 -116.526329 283 11028ft 147kts
28-Dec-20 12:44 33.904885 -116.572523 280 11971ft 146kts
28-Dec-20 12:45 33.918464 -116.624395 282 12014ft 176kts
28-Dec-20 12:46 33.931571 -116.674283 281 11987ft 141kts
28-Dec-20 12:47 33.942922 -116.717931 281 12029ft 147kts
28-Dec-20 12:48 33.947803 -116.760411 265 12038ft 146kts
28-Dec-20 12:49 33.946360 -116.807390 265 12045ft 146kts
28-Dec-20 12:50 33.944831 -116.853143 265 12054ft 147kts
28-Dec-20 12:51 33.943325 -116.897244 265 12051ft 147kts
28-Dec-20 12:52 33.941817 -116.940866 264 12048ft 149kts
28-Dec-20 12:53 33.940160 -116.988097 264 12046ft 149kts
28-Dec-20 12:54 33.938256 -117.040863 264 12070ft 191kts
28-Dec-20 12:55 33.935528 -117.116835 264 12044ft 220kts
28-Dec-20 12:56 33.932629 -117.191720 264 12046ft 220kts
28-Dec-20 12:57 33.930272 -117.248795 262 12005ft 138kts
28-Dec-20 12:58 33.927751 -117.306636 263 12048ft 179kts
28-Dec-20 12:59 33.925454 -117.359931 263 12051ft 168kts
28-Dec-20 13:00 33.923191 -117.412063 263 12055ft 165kts
28-Dec-20 13:01 33.920919 -117.467687 263 12051ft 156kts
28-Dec-20 13:02 33.918966 -117.519518 263 12056ft 149kts
28-Dec-20 13:03 33.917302 -117.563066 263 12060ft 149kts
28-Dec-20 13:04 33.915508 -117.608423 263 12062ft 149kts
28-Dec-20 13:05 33.913696 -117.652963 263 12060ft 148kts
28-Dec-20 13:06 33.916582 -117.698854 278 11449ft 162kts
28-Dec-20 13:07 33.928453 -117.750333 281 10060ft 175kts
28-Dec-20 13:08 33.942112 -117.800122 281 8764ft 181kts
28-Dec-20 13:09 33.955303 -117.850370 281 7494ft 185kts
28-Dec-20 13:10 33.968797 -117.898385 288 6303ft 192kts
28-Dec-20 13:11 33.981200 -117.946751 263 6041ft 163kts
28-Dec-20 13:12 33.977705 -117.990097 258 5630ft 173kts
28-Dec-20 13:13 33.973314 -118.032332 258 4587ft 174kts
28-Dec-20 13:14 33.968201 -118.080137 259 3643ft 164kts
28-Dec-20 13:15 33.961874 -118.138860 258 3634ft 151kts
28-Dec-20 13:16 33.957656 -118.183017 258 3623ft 138kts
28-Dec-20 13:17 33.954206 -118.225433 261 3168ft 153kts
28-Dec-20 13:18 33.949137 -118.278676 265 1897ft 145kts
28-Dec-20 13:19 33.942185 -118.328626 259 1105ft 114kts
28-Dec-20 13:20 33.938003 -118.376372 263 346ft 95kts
28-Dec-20 13:21 33.935770 -118.398573 263 113ft 33kts
28-Dec-20 13:22 33.934459 -118.402553 161 120ft 0kts
28-Dec-20 13:23 33.934274 -118.401148 87 117ft 7kts
28-Dec-20 13:24 33.933088 -118.399256 89 118ft 0kts

Navigation Log

Ident Type
Flight plan parsing failed, navigation log unavailable